sensor_id;sensor_type;location;lat;lon;timestamp;P1;durP1;ratioP1;P2;durP2;ratioP2
14688;SDS011;7432;48.728;9.154;2023-10-19T00:00:05;15.67;;;13.90;;
14688;SDS011;7432;48.728;9.154;2023-10-19T00:02:45;15.23;;;12.30;;
14688;SDS011;7432;48.728;9.154;2023-10-19T00:05:13;13.13;;;11.83;;
14688;SDS011;7432;48.728;9.154;2023-10-19T00:07:41;15.23;;;11.57;;
14688;SDS011;7432;48.728;9.154;2023-10-19T00:10:06;11.73;;;10.53;;
14688;SDS011;7432;48.728;9.154;2023-10-19T00:12:34;11.77;;;10.07;;
14688;SDS011;7432;48.728;9.154;2023-10-19T00:15:01;11.93;;;9.13;;
14688;SDS011;7432;48.728;9.154;2023-10-19T00:17:30;11.17;;;9.03;;
14688;SDS011;7432;48.728;9.154;2023-10-19T00:19:57;11.60;;;9.13;;
14688;SDS011;7432;48.728;9.154;2023-10-19T00:22:31;9.70;;;7.27;;
14688;SDS011;7432;48.728;9.154;2023-10-19T00:25:01;8.77;;;7.73;;
14688;SDS011;7432;48.728;9.154;2023-10-19T00:27:27;9.07;;;7.57;;
14688;SDS011;7432;48.728;9.154;2023-10-19T00:29:54;8.27;;;7.00;;
14688;SDS011;7432;48.728;9.154;2023-10-19T00:32:32;9.67;;;7.00;;
14688;SDS011;7432;48.728;9.154;2023-10-19T00:35:03;9.57;;;7.90;;
14688;SDS011;7432;48.728;9.154;2023-10-19T00:37:35;9.37;;;7.03;;
14688;SDS011;7432;48.728;9.154;2023-10-19T00:40:07;9.30;;;7.20;;
14688;SDS011;7432;48.728;9.154;2023-10-19T00:42:44;9.97;;;7.00;;
14688;SDS011;7432;48.728;9.154;2023-10-19T00:45:17;9.63;;;6.87;;
14688;SDS011;7432;48.728;9.154;2023-10-19T00:47:52;7.67;;;6.23;;
14688;SDS011;7432;48.728;9.154;2023-10-19T00:50:18;9.83;;;6.70;;
14688;SDS011;7432;48.728;9.154;2023-10-19T00:52:47;8.17;;;6.67;;
14688;SDS011;7432;48.728;9.154;2023-10-19T00:55:15;8.33;;;6.10;;
14688;SDS011;7432;48.728;9.154;2023-10-19T00:57:45;7.80;;;6.53;;
14688;SDS011;7432;48.728;9.154;2023-10-19T01:00:14;9.37;;;6.30;;
14688;SDS011;7432;48.728;9.154;2023-10-19T01:02:47;9.13;;;5.37;;
14688;SDS011;7432;48.728;9.154;2023-10-19T01:05:17;6.27;;;5.17;;
14688;SDS011;7432;48.728;9.154;2023-10-19T01:07:47;7.17;;;5.67;;
14688;SDS011;7432;48.728;9.154;2023-10-19T01:10:21;5.33;;;4.83;;
14688;SDS011;7432;48.728;9.154;2023-10-19T01:12:48;5.93;;;4.87;;
14688;SDS011;7432;48.728;9.154;2023-10-19T01:15:16;5.57;;;5.03;;
14688;SDS011;7432;48.728;9.154;2023-10-19T01:17:49;6.50;;;5.03;;
14688;SDS011;7432;48.728;9.154;2023-10-19T01:20:19;6.87;;;5.90;;
14688;SDS011;7432;48.728;9.154;2023-10-19T01:22:53;8.43;;;5.50;;
14688;SDS011;7432;48.728;9.154;2023-10-19T01:25:31;7.20;;;5.80;;
14688;SDS011;7432;48.728;9.154;2023-10-19T01:28:01;6.87;;;5.67;;
14688;SDS011;7432;48.728;9.154;2023-10-19T01:30:34;8.17;;;5.77;;
14688;SDS011;7432;48.728;9.154;2023-10-19T01:33:01;7.67;;;5.87;;
14688;SDS011;7432;48.728;9.154;2023-10-19T01:35:29;8.03;;;5.83;;
14688;SDS011;7432;48.728;9.154;2023-10-19T01:38:16;8.17;;;5.53;;
14688;SDS011;7432;48.728;9.154;2023-10-19T01:40:42;7.07;;;6.10;;
14688;SDS011;7432;48.728;9.154;2023-10-19T01:43:11;8.23;;;5.77;;
14688;SDS011;7432;48.728;9.154;2023-10-19T01:45:44;7.07;;;5.47;;
14688;SDS011;7432;48.728;9.154;2023-10-19T01:48:11;6.93;;;5.97;;
14688;SDS011;7432;48.728;9.154;2023-10-19T01:50:38;7.60;;;5.83;;
14688;SDS011;7432;48.728;9.154;2023-10-19T01:53:05;7.67;;;5.47;;
14688;SDS011;7432;48.728;9.154;2023-10-19T01:55:39;9.13;;;5.60;;
14688;SDS011;7432;48.728;9.154;2023-10-19T01:58:05;8.13;;;5.53;;
14688;SDS011;7432;48.728;9.154;2023-10-19T02:00:31;7.77;;;5.57;;
14688;SDS011;7432;48.728;9.154;2023-10-19T02:03:02;6.43;;;5.23;;
14688;SDS011;7432;48.728;9.154;2023-10-19T02:05:33;6.23;;;5.57;;
14688;SDS011;7432;48.728;9.154;2023-10-19T02:08:04;8.37;;;5.73;;
14688;SDS011;7432;48.728;9.154;2023-10-19T02:10:32;9.10;;;5.33;;
14688;SDS011;7432;48.728;9.154;2023-10-19T02:12:59;5.77;;;5.07;;
14688;SDS011;7432;48.728;9.154;2023-10-19T02:15:25;7.13;;;5.33;;
14688;SDS011;7432;48.728;9.154;2023-10-19T02:17:51;6.40;;;5.13;;
14688;SDS011;7432;48.728;9.154;2023-10-19T02:20:20;6.73;;;4.93;;
14688;SDS011;7432;48.728;9.154;2023-10-19T02:22:49;5.90;;;5.27;;
14688;SDS011;7432;48.728;9.154;2023-10-19T02:25:17;5.83;;;4.57;;
14688;SDS011;7432;48.728;9.154;2023-10-19T02:27:43;9.00;;;5.00;;
14688;SDS011;7432;48.728;9.154;2023-10-19T02:30:12;9.07;;;5.00;;
14688;SDS011;7432;48.728;9.154;2023-10-19T02:32:38;5.53;;;4.27;;
14688;SDS011;7432;48.728;9.154;2023-10-19T02:35:04;6.47;;;4.40;;
14688;SDS011;7432;48.728;9.154;2023-10-19T02:37:30;6.10;;;4.80;;
14688;SDS011;7432;48.728;9.154;2023-10-19T02:39:56;4.90;;;3.83;;
14688;SDS011;7432;48.728;9.154;2023-10-19T02:42:23;7.23;;;4.80;;
14688;SDS011;7432;48.728;9.154;2023-10-19T02:44:49;9.13;;;5.10;;
14688;SDS011;7432;48.728;9.154;2023-10-19T02:47:17;6.83;;;4.57;;
14688;SDS011;7432;48.728;9.154;2023-10-19T02:49:43;8.97;;;4.87;;
14688;SDS011;7432;48.728;9.154;2023-10-19T02:52:15;9.60;;;4.87;;
14688;SDS011;7432;48.728;9.154;2023-10-19T02:54:42;10.07;;;5.27;;
14688;SDS011;7432;48.728;9.154;2023-10-19T02:57:08;5.80;;;4.37;;
14688;SDS011;7432;48.728;9.154;2023-10-19T02:59:37;9.43;;;4.53;;
14688;SDS011;7432;48.728;9.154;2023-10-19T03:02:04;8.33;;;5.30;;
14688;SDS011;7432;48.728;9.154;2023-10-19T03:04:33;6.30;;;4.60;;
14688;SDS011;7432;48.728;9.154;2023-10-19T03:07:00;8.87;;;4.50;;
14688;SDS011;7432;48.728;9.154;2023-10-19T03:09:27;7.60;;;4.00;;
14688;SDS011;7432;48.728;9.154;2023-10-19T03:11:55;6.10;;;4.17;;
14688;SDS011;7432;48.728;9.154;2023-10-19T03:14:24;8.20;;;4.90;;
14688;SDS011;7432;48.728;9.154;2023-10-19T03:16:51;6.23;;;4.53;;
14688;SDS011;7432;48.728;9.154;2023-10-19T03:19:16;7.00;;;4.60;;
14688;SDS011;7432;48.728;9.154;2023-10-19T03:21:44;7.00;;;4.40;;
14688;SDS011;7432;48.728;9.154;2023-10-19T03:24:14;6.80;;;4.70;;
14688;SDS011;7432;48.728;9.154;2023-10-19T03:26:48;9.23;;;4.50;;
14688;SDS011;7432;48.728;9.154;2023-10-19T03:29:13;8.77;;;5.10;;
14688;SDS011;7432;48.728;9.154;2023-10-19T03:31:41;7.83;;;4.90;;
14688;SDS011;7432;48.728;9.154;2023-10-19T03:34:09;6.57;;;4.73;;
14688;SDS011;7432;48.728;9.154;2023-10-19T03:36:37;7.23;;;5.33;;
14688;SDS011;7432;48.728;9.154;2023-10-19T03:39:06;6.83;;;5.40;;
14688;SDS011;7432;48.728;9.154;2023-10-19T03:41:38;8.57;;;5.17;;
14688;SDS011;7432;48.728;9.154;2023-10-19T03:44:07;7.83;;;4.97;;
14688;SDS011;7432;48.728;9.154;2023-10-19T03:46:38;9.17;;;5.37;;
14688;SDS011;7432;48.728;9.154;2023-10-19T03:49:17;8.67;;;5.77;;
14688;SDS011;7432;48.728;9.154;2023-10-19T03:51:44;8.97;;;6.00;;
14688;SDS011;7432;48.728;9.154;2023-10-19T03:54:24;7.83;;;5.53;;
14688;SDS011;7432;48.728;9.154;2023-10-19T03:56:52;7.70;;;5.40;;
14688;SDS011;7432;48.728;9.154;2023-10-19T03:59:20;7.13;;;4.97;;
14688;SDS011;7432;48.728;9.154;2023-10-19T04:01:46;7.00;;;5.23;;
14688;SDS011;7432;48.728;9.154;2023-10-19T04:04:13;8.70;;;5.47;;
14688;SDS011;7432;48.728;9.154;2023-10-19T04:06:41;5.90;;;5.30;;
14688;SDS011;7432;48.728;9.154;2023-10-19T04:09:12;8.23;;;5.53;;
14688;SDS011;7432;48.728;9.154;2023-10-19T04:11:43;7.30;;;4.93;;
14688;SDS011;7432;48.728;9.154;2023-10-19T04:14:16;7.43;;;5.30;;
14688;SDS011;7432;48.728;9.154;2023-10-19T04:16:43;6.43;;;5.23;;
14688;SDS011;7432;48.728;9.154;2023-10-19T04:19:10;7.83;;;5.07;;
14688;SDS011;7432;48.728;9.154;2023-10-19T04:21:36;6.53;;;4.43;;
14688;SDS011;7432;48.728;9.154;2023-10-19T04:24:04;6.90;;;4.60;;
14688;SDS011;7432;48.728;9.154;2023-10-19T04:26:32;5.83;;;4.90;;
14688;SDS011;7432;48.728;9.154;2023-10-19T04:29:03;6.13;;;5.50;;
14688;SDS011;7432;48.728;9.154;2023-10-19T04:31:35;5.00;;;4.47;;
14688;SDS011;7432;48.728;9.154;2023-10-19T04:34:02;5.27;;;4.77;;
14688;SDS011;7432;48.728;9.154;2023-10-19T04:36:32;9.07;;;5.70;;
14688;SDS011;7432;48.728;9.154;2023-10-19T04:38:59;5.63;;;4.83;;
14688;SDS011;7432;48.728;9.154;2023-10-19T04:41:25;7.43;;;4.70;;
14688;SDS011;7432;48.728;9.154;2023-10-19T04:43:53;7.47;;;5.20;;
14688;SDS011;7432;48.728;9.154;2023-10-19T04:46:23;7.70;;;4.77;;
14688;SDS011;7432;48.728;9.154;2023-10-19T04:48:50;6.60;;;4.70;;
14688;SDS011;7432;48.728;9.154;2023-10-19T04:51:16;8.37;;;4.77;;
14688;SDS011;7432;48.728;9.154;2023-10-19T04:53:43;6.23;;;4.83;;
14688;SDS011;7432;48.728;9.154;2023-10-19T04:56:09;6.70;;;4.70;;
14688;SDS011;7432;48.728;9.154;2023-10-19T04:58:37;5.20;;;4.70;;
14688;SDS011;7432;48.728;9.154;2023-10-19T05:01:04;8.87;;;5.20;;
14688;SDS011;7432;48.728;9.154;2023-10-19T05:03:32;5.33;;;4.63;;
14688;SDS011;7432;48.728;9.154;2023-10-19T05:05:59;6.90;;;4.30;;
14688;SDS011;7432;48.728;9.154;2023-10-19T05:08:26;10.83;;;4.70;;
14688;SDS011;7432;48.728;9.154;2023-10-19T05:10:53;9.43;;;4.40;;
14688;SDS011;7432;48.728;9.154;2023-10-19T05:13:20;6.67;;;4.80;;
14688;SDS011;7432;48.728;9.154;2023-10-19T05:15:47;7.03;;;4.20;;
14688;SDS011;7432;48.728;9.154;2023-10-19T05:18:13;6.70;;;4.17;;
14688;SDS011;7432;48.728;9.154;2023-10-19T05:20:41;5.40;;;4.87;;
14688;SDS011;7432;48.728;9.154;2023-10-19T05:23:08;4.87;;;4.23;;
14688;SDS011;7432;48.728;9.154;2023-10-19T05:25:35;5.87;;;4.30;;
14688;SDS011;7432;48.728;9.154;2023-10-19T05:28:02;5.77;;;4.27;;
14688;SDS011;7432;48.728;9.154;2023-10-19T05:30:30;7.23;;;5.67;;
14688;SDS011;7432;48.728;9.154;2023-10-19T05:32:57;4.90;;;4.37;;
14688;SDS011;7432;48.728;9.154;2023-10-19T05:35:23;6.10;;;4.30;;
14688;SDS011;7432;48.728;9.154;2023-10-19T05:37:52;6.90;;;4.77;;
14688;SDS011;7432;48.728;9.154;2023-10-19T05:40:20;5.53;;;4.50;;
14688;SDS011;7432;48.728;9.154;2023-10-19T05:42:48;7.00;;;5.40;;
14688;SDS011;7432;48.728;9.154;2023-10-19T05:45:15;7.00;;;5.27;;
14688;SDS011;7432;48.728;9.154;2023-10-19T05:47:41;7.17;;;5.03;;
14688;SDS011;7432;48.728;9.154;2023-10-19T05:50:08;7.07;;;5.10;;
14688;SDS011;7432;48.728;9.154;2023-10-19T05:52:39;7.07;;;4.87;;
14688;SDS011;7432;48.728;9.154;2023-10-19T05:55:07;9.40;;;6.13;;
14688;SDS011;7432;48.728;9.154;2023-10-19T05:57:34;9.33;;;6.07;;
14688;SDS011;7432;48.728;9.154;2023-10-19T06:00:03;9.23;;;6.20;;
14688;SDS011;7432;48.728;9.154;2023-10-19T06:02:32;8.50;;;5.40;;
14688;SDS011;7432;48.728;9.154;2023-10-19T06:04:59;8.07;;;5.80;;
14688;SDS011;7432;48.728;9.154;2023-10-19T06:07:26;9.10;;;5.60;;
14688;SDS011;7432;48.728;9.154;2023-10-19T06:09:53;9.40;;;5.87;;
14688;SDS011;7432;48.728;9.154;2023-10-19T06:12:21;8.17;;;6.13;;
14688;SDS011;7432;48.728;9.154;2023-10-19T06:14:47;12.20;;;10.10;;
14688;SDS011;7432;48.728;9.154;2023-10-19T06:17:13;13.43;;;10.83;;
14688;SDS011;7432;48.728;9.154;2023-10-19T06:19:44;12.00;;;7.27;;
14688;SDS011;7432;48.728;9.154;2023-10-19T06:22:11;7.83;;;6.03;;
14688;SDS011;7432;48.728;9.154;2023-10-19T06:24:40;8.30;;;5.60;;
14688;SDS011;7432;48.728;9.154;2023-10-19T06:27:06;6.30;;;5.70;;
14688;SDS011;7432;48.728;9.154;2023-10-19T06:29:34;5.70;;;5.07;;
14688;SDS011;7432;48.728;9.154;2023-10-19T06:32:00;8.13;;;5.73;;
14688;SDS011;7432;48.728;9.154;2023-10-19T06:34:27;6.87;;;5.10;;
14688;SDS011;7432;48.728;9.154;2023-10-19T06:36:53;5.57;;;5.07;;
14688;SDS011;7432;48.728;9.154;2023-10-19T06:39:20;6.00;;;5.40;;
14688;SDS011;7432;48.728;9.154;2023-10-19T06:41:46;6.37;;;5.17;;
14688;SDS011;7432;48.728;9.154;2023-10-19T06:44:14;6.73;;;5.57;;
14688;SDS011;7432;48.728;9.154;2023-10-19T06:46:43;8.17;;;5.17;;
14688;SDS011;7432;48.728;9.154;2023-10-19T06:49:09;5.90;;;5.33;;
14688;SDS011;7432;48.728;9.154;2023-10-19T06:51:35;6.00;;;5.40;;
14688;SDS011;7432;48.728;9.154;2023-10-19T06:54:02;6.53;;;5.40;;
14688;SDS011;7432;48.728;9.154;2023-10-19T06:56:29;6.53;;;4.70;;
14688;SDS011;7432;48.728;9.154;2023-10-19T06:58:57;7.90;;;6.00;;
14688;SDS011;7432;48.728;9.154;2023-10-19T07:01:24;7.83;;;5.47;;
14688;SDS011;7432;48.728;9.154;2023-10-19T07:03:56;7.53;;;5.10;;
14688;SDS011;7432;48.728;9.154;2023-10-19T07:06:23;8.40;;;5.83;;
14688;SDS011;7432;48.728;9.154;2023-10-19T07:08:49;7.37;;;5.77;;
14688;SDS011;7432;48.728;9.154;2023-10-19T07:11:16;9.33;;;6.00;;
14688;SDS011;7432;48.728;9.154;2023-10-19T07:13:43;8.23;;;6.30;;
14688;SDS011;7432;48.728;9.154;2023-10-19T07:16:10;7.93;;;5.77;;
14688;SDS011;7432;48.728;9.154;2023-10-19T07:18:37;7.13;;;6.03;;
14688;SDS011;7432;48.728;9.154;2023-10-19T07:21:05;8.37;;;6.07;;
14688;SDS011;7432;48.728;9.154;2023-10-19T07:23:34;9.17;;;5.97;;
14688;SDS011;7432;48.728;9.154;2023-10-19T07:26:03;6.77;;;5.60;;
14688;SDS011;7432;48.728;9.154;2023-10-19T07:28:30;8.37;;;5.80;;
14688;SDS011;7432;48.728;9.154;2023-10-19T07:30:58;7.07;;;5.57;;
14688;SDS011;7432;48.728;9.154;2023-10-19T07:33:25;6.27;;;5.40;;
14688;SDS011;7432;48.728;9.154;2023-10-19T07:35:51;6.73;;;6.03;;
14688;SDS011;7432;48.728;9.154;2023-10-19T07:38:21;6.90;;;5.30;;
14688;SDS011;7432;48.728;9.154;2023-10-19T07:40:48;6.40;;;5.80;;
14688;SDS011;7432;48.728;9.154;2023-10-19T07:43:17;6.73;;;5.97;;
14688;SDS011;7432;48.728;9.154;2023-10-19T07:45:45;7.23;;;5.70;;
14688;SDS011;7432;48.728;9.154;2023-10-19T07:48:12;5.90;;;5.20;;
14688;SDS011;7432;48.728;9.154;2023-10-19T07:50:39;6.13;;;4.87;;
14688;SDS011;7432;48.728;9.154;2023-10-19T07:53:07;5.83;;;5.33;;
14688;SDS011;7432;48.728;9.154;2023-10-19T07:55:35;6.57;;;5.10;;
14688;SDS011;7432;48.728;9.154;2023-10-19T07:58:03;6.13;;;4.80;;
14688;SDS011;7432;48.728;9.154;2023-10-19T08:00:31;5.10;;;4.60;;
14688;SDS011;7432;48.728;9.154;2023-10-19T08:02:59;5.10;;;4.60;;
14688;SDS011;7432;48.728;9.154;2023-10-19T08:05:25;6.27;;;4.57;;
14688;SDS011;7432;48.728;9.154;2023-10-19T08:07:52;6.47;;;4.20;;
14688;SDS011;7432;48.728;9.154;2023-10-19T08:10:19;6.23;;;4.30;;
14688;SDS011;7432;48.728;9.154;2023-10-19T08:12:48;5.60;;;4.63;;
14688;SDS011;7432;48.728;9.154;2023-10-19T08:15:16;5.13;;;4.17;;
14688;SDS011;7432;48.728;9.154;2023-10-19T08:17:43;6.20;;;3.70;;
14688;SDS011;7432;48.728;9.154;2023-10-19T08:20:12;5.57;;;3.67;;
14688;SDS011;7432;48.728;9.154;2023-10-19T08:22:42;3.40;;;3.03;;
14688;SDS011;7432;48.728;9.154;2023-10-19T08:25:11;5.80;;;3.30;;
14688;SDS011;7432;48.728;9.154;2023-10-19T08:27:39;5.20;;;2.90;;
14688;SDS011;7432;48.728;9.154;2023-10-19T08:30:08;5.47;;;3.80;;
14688;SDS011;7432;48.728;9.154;2023-10-19T08:32:35;4.32;;;3.92;;
14688;SDS011;7432;48.728;9.154;2023-10-19T08:35:01;9.10;;;8.35;;
14688;SDS011;7432;48.728;9.154;2023-10-19T08:37:28;4.85;;;3.35;;
14688;SDS011;7432;48.728;9.154;2023-10-19T08:39:55;3.80;;;3.13;;
14688;SDS011;7432;48.728;9.154;2023-10-19T08:42:23;7.18;;;6.57;;
14688;SDS011;7432;48.728;9.154;2023-10-19T08:44:50;8.23;;;7.03;;
14688;SDS011;7432;48.728;9.154;2023-10-19T08:47:17;9.98;;;9.15;;
14688;SDS011;7432;48.728;9.154;2023-10-19T08:49:45;5.45;;;3.83;;
14688;SDS011;7432;48.728;9.154;2023-10-19T08:52:11;2.80;;;2.45;;
14688;SDS011;7432;48.728;9.154;2023-10-19T08:54:40;5.68;;;2.80;;
14688;SDS011;7432;48.728;9.154;2023-10-19T08:57:06;5.35;;;3.20;;
14688;SDS011;7432;48.728;9.154;2023-10-19T08:59:33;14.82;;;13.43;;
14688;SDS011;7432;48.728;9.154;2023-10-19T09:02:00;15.65;;;14.10;;
14688;SDS011;7432;48.728;9.154;2023-10-19T09:04:28;15.18;;;13.90;;
14688;SDS011;7432;48.728;9.154;2023-10-19T09:06:55;14.70;;;13.40;;
14688;SDS011;7432;48.728;9.154;2023-10-19T09:09:21;15.10;;;13.50;;
14688;SDS011;7432;48.728;9.154;2023-10-19T09:11:50;14.97;;;13.40;;
14688;SDS011;7432;48.728;9.154;2023-10-19T09:14:30;13.67;;;12.47;;
14688;SDS011;7432;48.728;9.154;2023-10-19T09:16:58;13.23;;;12.03;;
14688;SDS011;7432;48.728;9.154;2023-10-19T09:19:36;13.33;;;12.23;;
14688;SDS011;7432;48.728;9.154;2023-10-19T09:22:04;13.30;;;12.10;;
14688;SDS011;7432;48.728;9.154;2023-10-19T09:24:32;13.27;;;12.07;;
14688;SDS011;7432;48.728;9.154;2023-10-19T09:26:59;13.20;;;12.20;;
14688;SDS011;7432;48.728;9.154;2023-10-19T09:29:27;15.23;;;13.93;;
14688;SDS011;7432;48.728;9.154;2023-10-19T09:31:53;12.93;;;11.87;;
14688;SDS011;7432;48.728;9.154;2023-10-19T09:34:27;12.90;;;11.83;;
14688;SDS011;7432;48.728;9.154;2023-10-19T09:36:58;13.93;;;12.37;;
14688;SDS011;7432;48.728;9.154;2023-10-19T09:39:26;12.30;;;11.30;;
14688;SDS011;7432;48.728;9.154;2023-10-19T09:41:59;12.83;;;11.80;;
14688;SDS011;7432;48.728;9.154;2023-10-19T09:44:27;13.13;;;11.70;;
14688;SDS011;7432;48.728;9.154;2023-10-19T09:46:57;13.20;;;11.47;;
14688;SDS011;7432;48.728;9.154;2023-10-19T09:49:25;14.47;;;13.23;;
14688;SDS011;7432;48.728;9.154;2023-10-19T09:51:53;13.70;;;12.40;;
14688;SDS011;7432;48.728;9.154;2023-10-19T09:54:22;13.93;;;12.83;;
14688;SDS011;7432;48.728;9.154;2023-10-19T09:56:57;14.00;;;12.80;;
14688;SDS011;7432;48.728;9.154;2023-10-19T09:59:29;15.60;;;14.10;;
14688;SDS011;7432;48.728;9.154;2023-10-19T10:02:04;14.37;;;13.27;;
14688;SDS011;7432;48.728;9.154;2023-10-19T10:04:33;12.70;;;11.70;;
14688;SDS011;7432;48.728;9.154;2023-10-19T10:07:01;12.73;;;11.73;;
14688;SDS011;7432;48.728;9.154;2023-10-19T10:09:32;12.83;;;11.90;;
14688;SDS011;7432;48.728;9.154;2023-10-19T10:12:17;14.27;;;12.87;;
14688;SDS011;7432;48.728;9.154;2023-10-19T10:14:59;13.70;;;12.70;;
14688;SDS011;7432;48.728;9.154;2023-10-19T10:17:28;14.70;;;13.00;;
14688;SDS011;7432;48.728;9.154;2023-10-19T10:19:55;15.43;;;14.20;;
14688;SDS011;7432;48.728;9.154;2023-10-19T10:22:43;16.50;;;15.10;;
14688;SDS011;7432;48.728;9.154;2023-10-19T10:25:14;14.27;;;13.13;;
14688;SDS011;7432;48.728;9.154;2023-10-19T10:27:51;14.67;;;13.50;;
14688;SDS011;7432;48.728;9.154;2023-10-19T10:30:18;13.47;;;12.47;;
14688;SDS011;7432;48.728;9.154;2023-10-19T10:32:45;13.43;;;12.43;;
14688;SDS011;7432;48.728;9.154;2023-10-19T10:38:12;17.63;;;15.83;;
14688;SDS011;7432;48.728;9.154;2023-10-19T10:40:43;15.23;;;14.13;;
14688;SDS011;7432;48.728;9.154;2023-10-19T10:43:10;14.20;;;13.10;;
14688;SDS011;7432;48.728;9.154;2023-10-19T10:45:37;12.70;;;11.80;;
14688;SDS011;7432;48.728;9.154;2023-10-19T10:48:04;14.30;;;13.23;;
14688;SDS011;7432;48.728;9.154;2023-10-19T10:50:37;7.57;;;6.40;;
14688;SDS011;7432;48.728;9.154;2023-10-19T10:53:04;10.37;;;9.30;;
14688;SDS011;7432;48.728;9.154;2023-10-19T10:55:30;9.83;;;8.70;;
14688;SDS011;7432;48.728;9.154;2023-10-19T10:57:58;9.40;;;8.50;;
14688;SDS011;7432;48.728;9.154;2023-10-19T11:00:25;14.97;;;13.50;;
14688;SDS011;7432;48.728;9.154;2023-10-19T11:02:58;5.20;;;4.67;;
14688;SDS011;7432;48.728;9.154;2023-10-19T11:05:26;5.47;;;4.90;;
14688;SDS011;7432;48.728;9.154;2023-10-19T11:08:02;6.93;;;5.20;;
14688;SDS011;7432;48.728;9.154;2023-10-19T11:10:31;7.43;;;4.73;;
14688;SDS011;7432;48.728;9.154;2023-10-19T11:13:01;5.93;;;5.07;;
14688;SDS011;7432;48.728;9.154;2023-10-19T11:15:28;6.17;;;4.40;;
14688;SDS011;7432;48.728;9.154;2023-10-19T11:17:54;5.10;;;4.60;;
14688;SDS011;7432;48.728;9.154;2023-10-19T11:20:22;9.10;;;4.90;;
14688;SDS011;7432;48.728;9.154;2023-10-19T11:22:50;3.67;;;3.13;;
14688;SDS011;7432;48.728;9.154;2023-10-19T11:25:18;3.70;;;3.00;;
14688;SDS011;7432;48.728;9.154;2023-10-19T11:27:45;3.70;;;3.30;;
14688;SDS011;7432;48.728;9.154;2023-10-19T11:30:15;3.87;;;3.33;;
14688;SDS011;7432;48.728;9.154;2023-10-19T11:32:49;4.43;;;4.03;;
14688;SDS011;7432;48.728;9.154;2023-10-19T11:35:17;6.80;;;6.20;;
14688;SDS011;7432;48.728;9.154;2023-10-19T11:37:47;10.13;;;9.40;;
14688;SDS011;7432;48.728;9.154;2023-10-19T11:40:15;9.57;;;9.00;;
14688;SDS011;7432;48.728;9.154;2023-10-19T11:42:42;9.63;;;9.03;;
14688;SDS011;7432;48.728;9.154;2023-10-19T11:45:08;10.03;;;9.40;;
14688;SDS011;7432;48.728;9.154;2023-10-19T11:47:38;9.80;;;9.10;;
14688;SDS011;7432;48.728;9.154;2023-10-19T11:50:04;10.17;;;9.27;;
14688;SDS011;7432;48.728;9.154;2023-10-19T11:52:31;9.73;;;9.03;;
14688;SDS011;7432;48.728;9.154;2023-10-19T11:54:58;9.03;;;8.43;;
14688;SDS011;7432;48.728;9.154;2023-10-19T11:57:24;10.73;;;9.93;;
14688;SDS011;7432;48.728;9.154;2023-10-19T11:59:51;13.87;;;12.87;;
14688;SDS011;7432;48.728;9.154;2023-10-19T12:02:18;8.93;;;8.30;;
14688;SDS011;7432;48.728;9.154;2023-10-19T12:04:47;7.83;;;7.33;;
14688;SDS011;7432;48.728;9.154;2023-10-19T12:07:13;8.67;;;8.00;;
14688;SDS011;7432;48.728;9.154;2023-10-19T12:09:39;8.90;;;8.10;;
14688;SDS011;7432;48.728;9.154;2023-10-19T12:12:07;7.93;;;7.43;;
14688;SDS011;7432;48.728;9.154;2023-10-19T12:14:34;8.40;;;7.70;;
14688;SDS011;7432;48.728;9.154;2023-10-19T12:17:01;9.53;;;8.73;;
14688;SDS011;7432;48.728;9.154;2023-10-19T12:19:29;9.90;;;9.10;;
14688;SDS011;7432;48.728;9.154;2023-10-19T12:21:57;9.93;;;8.93;;
14688;SDS011;7432;48.728;9.154;2023-10-19T12:24:23;9.03;;;8.37;;
14688;SDS011;7432;48.728;9.154;2023-10-19T12:26:53;7.93;;;7.20;;
14688;SDS011;7432;48.728;9.154;2023-10-19T12:29:19;7.70;;;7.00;;
14688;SDS011;7432;48.728;9.154;2023-10-19T12:31:46;8.67;;;7.87;;
14688;SDS011;7432;48.728;9.154;2023-10-19T12:34:13;8.50;;;7.80;;
14688;SDS011;7432;48.728;9.154;2023-10-19T12:36:40;7.80;;;7.20;;
14688;SDS011;7432;48.728;9.154;2023-10-19T12:39:09;9.07;;;8.30;;
14688;SDS011;7432;48.728;9.154;2023-10-19T12:41:41;8.60;;;7.90;;
14688;SDS011;7432;48.728;9.154;2023-10-19T12:44:07;8.20;;;7.40;;
14688;SDS011;7432;48.728;9.154;2023-10-19T12:46:34;8.57;;;7.87;;
14688;SDS011;7432;48.728;9.154;2023-10-19T12:49:01;9.07;;;8.17;;
14688;SDS011;7432;48.728;9.154;2023-10-19T12:51:33;10.03;;;9.03;;
14688;SDS011;7432;48.728;9.154;2023-10-19T12:54:00;9.73;;;8.73;;
14688;SDS011;7432;48.728;9.154;2023-10-19T12:56:29;10.57;;;9.57;;
14688;SDS011;7432;48.728;9.154;2023-10-19T12:58:58;11.60;;;10.40;;
14688;SDS011;7432;48.728;9.154;2023-10-19T13:01:24;13.03;;;11.83;;
14688;SDS011;7432;48.728;9.154;2023-10-19T13:03:53;13.43;;;12.13;;
14688;SDS011;7432;48.728;9.154;2023-10-19T13:06:19;13.33;;;12.20;;
14688;SDS011;7432;48.728;9.154;2023-10-19T13:08:50;15.80;;;14.30;;
14688;SDS011;7432;48.728;9.154;2023-10-19T13:11:16;16.83;;;15.23;;
14688;SDS011;7432;48.728;9.154;2023-10-19T13:13:45;15.07;;;13.60;;
14688;SDS011;7432;48.728;9.154;2023-10-19T13:16:11;15.57;;;14.03;;
14688;SDS011;7432;48.728;9.154;2023-10-19T13:18:38;16.27;;;14.90;;
14688;SDS011;7432;48.728;9.154;2023-10-19T13:21:05;15.53;;;13.53;;
14688;SDS011;7432;48.728;9.154;2023-10-19T13:23:34;15.53;;;14.13;;
14688;SDS011;7432;48.728;9.154;2023-10-19T13:26:01;15.77;;;14.27;;
14688;SDS011;7432;48.728;9.154;2023-10-19T13:28:41;14.10;;;12.83;;
14688;SDS011;7432;48.728;9.154;2023-10-19T13:31:10;13.57;;;12.30;;
14688;SDS011;7432;48.728;9.154;2023-10-19T13:33:38;14.50;;;13.20;;
14688;SDS011;7432;48.728;9.154;2023-10-19T13:36:06;14.70;;;13.50;;
14688;SDS011;7432;48.728;9.154;2023-10-19T13:38:33;14.57;;;13.37;;
14688;SDS011;7432;48.728;9.154;2023-10-19T13:41:02;14.83;;;13.33;;
14688;SDS011;7432;48.728;9.154;2023-10-19T13:43:32;14.60;;;13.10;;
14688;SDS011;7432;48.728;9.154;2023-10-19T13:46:00;16.07;;;14.47;;
14688;SDS011;7432;48.728;9.154;2023-10-19T13:48:28;15.50;;;14.00;;
14688;SDS011;7432;48.728;9.154;2023-10-19T13:50:54;15.30;;;13.80;;
14688;SDS011;7432;48.728;9.154;2023-10-19T13:53:25;15.20;;;14.00;;
14688;SDS011;7432;48.728;9.154;2023-10-19T13:55:52;16.23;;;14.77;;
14688;SDS011;7432;48.728;9.154;2023-10-19T13:58:19;16.23;;;14.83;;
14688;SDS011;7432;48.728;9.154;2023-10-19T14:00:46;15.13;;;13.60;;
14688;SDS011;7432;48.728;9.154;2023-10-19T14:03:14;15.87;;;14.37;;
14688;SDS011;7432;48.728;9.154;2023-10-19T14:05:42;15.70;;;14.03;;
14688;SDS011;7432;48.728;9.154;2023-10-19T14:08:12;15.23;;;13.93;;
14688;SDS011;7432;48.728;9.154;2023-10-19T14:10:39;15.40;;;13.87;;
14688;SDS011;7432;48.728;9.154;2023-10-19T14:13:06;16.57;;;14.97;;
14688;SDS011;7432;48.728;9.154;2023-10-19T14:15:33;14.70;;;13.27;;
14688;SDS011;7432;48.728;9.154;2023-10-19T14:18:00;15.63;;;14.13;;
14688;SDS011;7432;48.728;9.154;2023-10-19T14:20:28;14.30;;;12.90;;
14688;SDS011;7432;48.728;9.154;2023-10-19T14:22:56;17.00;;;15.37;;
14688;SDS011;7432;48.728;9.154;2023-10-19T14:25:23;16.17;;;14.57;;
14688;SDS011;7432;48.728;9.154;2023-10-19T14:27:51;15.40;;;13.80;;
14688;SDS011;7432;48.728;9.154;2023-10-19T14:30:23;16.03;;;14.47;;
14688;SDS011;7432;48.728;9.154;2023-10-19T14:32:50;15.37;;;13.77;;
14688;SDS011;7432;48.728;9.154;2023-10-19T14:35:17;15.47;;;13.90;;
14688;SDS011;7432;48.728;9.154;2023-10-19T14:37:45;16.23;;;14.73;;
14688;SDS011;7432;48.728;9.154;2023-10-19T14:40:15;15.20;;;13.70;;
14688;SDS011;7432;48.728;9.154;2023-10-19T14:42:45;16.40;;;14.50;;
14688;SDS011;7432;48.728;9.154;2023-10-19T14:45:12;16.13;;;14.50;;
14688;SDS011;7432;48.728;9.154;2023-10-19T14:47:41;17.33;;;15.63;;
14688;SDS011;7432;48.728;9.154;2023-10-19T14:50:10;14.97;;;13.63;;
14688;SDS011;7432;48.728;9.154;2023-10-19T14:52:38;15.63;;;14.13;;
14688;SDS011;7432;48.728;9.154;2023-10-19T14:55:05;16.00;;;14.50;;
14688;SDS011;7432;48.728;9.154;2023-10-19T14:57:34;16.30;;;14.63;;
14688;SDS011;7432;48.728;9.154;2023-10-19T15:00:00;21.13;;;15.73;;
14688;SDS011;7432;48.728;9.154;2023-10-19T15:02:34;16.80;;;15.10;;